sensor_id;sensor_type;location;lat;lon;timestamp;pressure;altitude;pressure_sealevel;temperature;humidity
77153;BME280;66124;51.146;17.072;2023-11-21T00:01:44;99438.25;;;8.11;90.14
77153;BME280;66124;51.146;17.072;2023-11-21T00:04:13;99439.28;;;8.10;90.27
77153;BME280;66124;51.146;17.072;2023-11-21T00:06:43;99438.69;;;8.08;90.17
77153;BME280;66124;51.146;17.072;2023-11-21T00:09:12;99437.59;;;8.06;90.23
77153;BME280;66124;51.146;17.072;2023-11-21T00:11:41;99443.67;;;8.05;90.24
77153;BME280;66124;51.146;17.072;2023-11-21T00:14:11;99441.44;;;8.05;90.25
77153;BME280;66124;51.146;17.072;2023-11-21T00:16:39;99443.95;;;8.05;90.28
77153;BME280;66124;51.146;17.072;2023-11-21T00:26:44;99448.66;;;8.11;90.23
77153;BME280;66124;51.146;17.072;2023-11-21T00:29:12;99453.61;;;8.09;90.10
77153;BME280;66124;51.146;17.072;2023-11-21T00:31:39;99455.41;;;8.07;90.19
77153;BME280;66124;51.146;17.072;2023-11-21T00:34:06;99455.77;;;8.04;90.14
77153;BME280;66124;51.146;17.072;2023-11-21T00:36:34;99457.55;;;8.01;90.18
77153;BME280;66124;51.146;17.072;2023-11-21T00:39:01;99455.73;;;7.98;90.24
77153;BME280;66124;51.146;17.072;2023-11-21T00:41:29;99457.58;;;7.97;90.00
77153;BME280;66124;51.146;17.072;2023-11-21T00:43:56;99463.67;;;7.96;90.22
77153;BME280;66124;51.146;17.072;2023-11-21T00:46:23;99461.20;;;7.94;89.86
77153;BME280;66124;51.146;17.072;2023-11-21T00:48:49;99459.59;;;7.91;90.13
77153;BME280;66124;51.146;17.072;2023-11-21T00:53:11;99458.08;;;7.89;89.99
77153;BME280;66124;51.146;17.072;2023-11-21T00:55:41;99460.39;;;7.87;90.10
77153;BME280;66124;51.146;17.072;2023-11-21T00:58:11;99455.45;;;7.86;90.00
77153;BME280;66124;51.146;17.072;2023-11-21T01:00:40;99456.23;;;7.85;90.12
77153;BME280;66124;51.146;17.072;2023-11-21T01:03:09;99455.06;;;7.85;90.07
77153;BME280;66124;51.146;17.072;2023-11-21T01:05:40;99455.16;;;7.84;90.07
77153;BME280;66124;51.146;17.072;2023-11-21T01:08:09;99457.40;;;7.84;90.10
77153;BME280;66124;51.146;17.072;2023-11-21T01:10:39;99458.52;;;7.84;90.13
77153;BME280;66124;51.146;17.072;2023-11-21T01:13:08;99457.87;;;7.84;90.12
77153;BME280;66124;51.146;17.072;2023-11-21T01:15:38;99456.81;;;7.83;90.11
77153;BME280;66124;51.146;17.072;2023-11-21T01:18:07;99457.15;;;7.84;90.17
77153;BME280;66124;51.146;17.072;2023-11-21T01:20:37;99457.58;;;7.83;90.10
77153;BME280;66124;51.146;17.072;2023-11-21T01:23:06;99457.73;;;7.82;90.16
77153;BME280;66124;51.146;17.072;2023-11-21T01:25:36;99460.48;;;7.82;90.25
77153;BME280;66124;51.146;17.072;2023-11-21T01:28:05;99464.42;;;7.81;90.25
77153;BME280;66124;51.146;17.072;2023-11-21T01:30:34;99464.02;;;7.82;90.17
77153;BME280;66124;51.146;17.072;2023-11-21T01:33:04;99468.10;;;7.81;90.23
77153;BME280;66124;51.146;17.072;2023-11-21T01:35:33;99473.77;;;7.81;90.13
77153;BME280;66124;51.146;17.072;2023-11-21T01:38:03;99474.89;;;7.80;90.24
77153;BME280;66124;51.146;17.072;2023-11-21T01:40:32;99469.46;;;7.79;90.11
77153;BME280;66124;51.146;17.072;2023-11-21T01:43:01;99471.29;;;7.80;90.04
77153;BME280;66124;51.146;17.072;2023-11-21T01:45:31;99471.16;;;7.79;90.07
77153;BME280;66124;51.146;17.072;2023-11-21T01:48:01;99470.04;;;7.78;89.98
77153;BME280;66124;51.146;17.072;2023-11-21T01:50:31;99471.31;;;7.78;90.25
77153;BME280;66124;51.146;17.072;2023-11-21T01:53:01;99470.46;;;7.78;90.11
77153;BME280;66124;51.146;17.072;2023-11-21T01:55:31;99470.21;;;7.77;90.32
77153;BME280;66124;51.146;17.072;2023-11-21T01:58:01;99470.64;;;7.76;90.40
77153;BME280;66124;51.146;17.072;2023-11-21T02:00:30;99468.95;;;7.75;89.88
77153;BME280;66124;51.146;17.072;2023-11-21T02:02:59;99467.15;;;7.74;90.29
77153;BME280;66124;51.146;17.072;2023-11-21T02:05:28;99470.58;;;7.75;90.17
77153;BME280;66124;51.146;17.072;2023-11-21T02:16:16;99476.80;;;7.77;90.11
77153;BME280;66124;51.146;17.072;2023-11-21T02:18:46;99479.66;;;7.73;89.97
77153;BME280;66124;51.146;17.072;2023-11-21T02:21:15;99477.36;;;7.72;89.95
77153;BME280;66124;51.146;17.072;2023-11-21T02:23:45;99482.65;;;7.72;90.14
77153;BME280;66124;51.146;17.072;2023-11-21T02:26:14;99480.10;;;7.71;90.20
77153;BME280;66124;51.146;17.072;2023-11-21T02:28:45;99479.58;;;7.71;90.21
77153;BME280;66124;51.146;17.072;2023-11-21T02:31:14;99478.31;;;7.70;90.18
77153;BME280;66124;51.146;17.072;2023-11-21T02:33:44;99478.61;;;7.69;90.15
77153;BME280;66124;51.146;17.072;2023-11-21T02:36:13;99479.17;;;7.69;90.10
77153;BME280;66124;51.146;17.072;2023-11-21T02:38:43;99481.61;;;7.67;90.30
77153;BME280;66124;51.146;17.072;2023-11-21T02:41:12;99480.26;;;7.65;90.24
77153;BME280;66124;51.146;17.072;2023-11-21T02:43:41;99481.61;;;7.64;90.22
77153;BME280;66124;51.146;17.072;2023-11-21T02:46:11;99483.66;;;7.63;90.22
77153;BME280;66124;51.146;17.072;2023-11-21T02:48:40;99480.79;;;7.63;90.40
77153;BME280;66124;51.146;17.072;2023-11-21T02:51:10;99482.45;;;7.63;90.40
77153;BME280;66124;51.146;17.072;2023-11-21T02:53:39;99483.73;;;7.63;90.45
77153;BME280;66124;51.146;17.072;2023-11-21T02:56:10;99486.28;;;7.63;90.48
77153;BME280;66124;51.146;17.072;2023-11-21T02:58:40;99484.59;;;7.63;90.61
77153;BME280;66124;51.146;17.072;2023-11-21T03:01:10;99483.56;;;7.63;90.46
77153;BME280;66124;51.146;17.072;2023-11-21T03:03:40;99487.55;;;7.63;90.80
77153;BME280;66124;51.146;17.072;2023-11-21T03:06:10;99486.02;;;7.63;90.50
77153;BME280;66124;51.146;17.072;2023-11-21T03:08:39;99488.55;;;7.62;90.41
77153;BME280;66124;51.146;17.072;2023-11-21T03:11:09;99490.98;;;7.62;90.80
77153;BME280;66124;51.146;17.072;2023-11-21T03:13:38;99491.50;;;7.62;90.83
77153;BME280;66124;51.146;17.072;2023-11-21T03:16:09;99491.83;;;7.62;90.72
77153;BME280;66124;51.146;17.072;2023-11-21T03:18:39;99493.66;;;7.63;91.06
77153;BME280;66124;51.146;17.072;2023-11-21T03:21:09;99487.71;;;7.65;90.87
77153;BME280;66124;51.146;17.072;2023-11-21T03:23:39;99492.52;;;7.65;90.78
77153;BME280;66124;51.146;17.072;2023-11-21T03:26:12;99492.44;;;7.64;90.74
77153;BME280;66124;51.146;17.072;2023-11-21T03:31:33;99489.85;;;7.67;90.76
77153;BME280;66124;51.146;17.072;2023-11-21T03:34:02;99490.65;;;7.66;90.97
77153;BME280;66124;51.146;17.072;2023-11-21T03:36:32;99494.33;;;7.66;90.92
77153;BME280;66124;51.146;17.072;2023-11-21T03:39:01;99494.70;;;7.67;90.86
77153;BME280;66124;51.146;17.072;2023-11-21T03:41:30;99496.34;;;7.67;90.80
77153;BME280;66124;51.146;17.072;2023-11-21T03:44:01;99500.85;;;7.66;90.91
77153;BME280;66124;51.146;17.072;2023-11-21T03:46:30;99497.86;;;7.67;90.81
77153;BME280;66124;51.146;17.072;2023-11-21T03:49:00;99502.02;;;7.66;90.83
77153;BME280;66124;51.146;17.072;2023-11-21T03:51:29;99505.34;;;7.66;90.90
77153;BME280;66124;51.146;17.072;2023-11-21T03:53:59;99503.80;;;7.66;90.95
77153;BME280;66124;51.146;17.072;2023-11-21T03:56:28;99503.07;;;7.66;90.88
77153;BME280;66124;51.146;17.072;2023-11-21T03:58:57;99500.98;;;7.66;90.83
77153;BME280;66124;51.146;17.072;2023-11-21T04:01:27;99505.08;;;7.67;90.97
77153;BME280;66124;51.146;17.072;2023-11-21T04:03:56;99508.14;;;7.68;91.02
77153;BME280;66124;51.146;17.072;2023-11-21T04:06:26;99508.42;;;7.67;90.94
77153;BME280;66124;51.146;17.072;2023-11-21T04:08:55;99507.52;;;7.67;90.98
77153;BME280;66124;51.146;17.072;2023-11-21T04:11:24;99508.41;;;7.69;90.82
77153;BME280;66124;51.146;17.072;2023-11-21T04:13:54;99505.77;;;7.69;90.89
77153;BME280;66124;51.146;17.072;2023-11-21T04:16:23;99512.08;;;7.69;90.97
77153;BME280;66124;51.146;17.072;2023-11-21T04:18:52;99509.00;;;7.68;91.01
77153;BME280;66124;51.146;17.072;2023-11-21T04:21:22;99511.91;;;7.68;91.00
77153;BME280;66124;51.146;17.072;2023-11-21T04:23:52;99515.14;;;7.69;91.03
77153;BME280;66124;51.146;17.072;2023-11-21T04:26:21;99518.23;;;7.70;91.04
77153;BME280;66124;51.146;17.072;2023-11-21T04:28:50;99515.04;;;7.70;90.86
77153;BME280;66124;51.146;17.072;2023-11-21T04:31:20;99517.77;;;7.69;90.94
77153;BME280;66124;51.146;17.072;2023-11-21T04:33:49;99517.19;;;7.70;90.79
77153;BME280;66124;51.146;17.072;2023-11-21T04:36:19;99521.21;;;7.70;90.82
77153;BME280;66124;51.146;17.072;2023-11-21T04:38:48;99520.20;;;7.69;90.90
77153;BME280;66124;51.146;17.072;2023-11-21T04:41:18;99524.20;;;7.69;90.89
77153;BME280;66124;51.146;17.072;2023-11-21T04:43:46;99521.45;;;7.69;90.78
77153;BME280;66124;51.146;17.072;2023-11-21T04:51:24;99529.44;;;7.70;90.66
77153;BME280;66124;51.146;17.072;2023-11-21T04:53:53;99532.29;;;7.66;90.61
77153;BME280;66124;51.146;17.072;2023-11-21T04:56:23;99531.90;;;7.64;90.66
77153;BME280;66124;51.146;17.072;2023-11-21T04:58:52;99540.94;;;7.61;90.60
77153;BME280;66124;51.146;17.072;2023-11-21T05:01:22;99546.21;;;7.58;90.53
77153;BME280;66124;51.146;17.072;2023-11-21T05:03:52;99550.51;;;7.54;90.48
77153;BME280;66124;51.146;17.072;2023-11-21T05:06:22;99545.71;;;7.50;90.45
77153;BME280;66124;51.146;17.072;2023-11-21T05:08:51;99550.03;;;7.48;90.46
77153;BME280;66124;51.146;17.072;2023-11-21T05:11:27;99546.86;;;7.46;90.43
77153;BME280;66124;51.146;17.072;2023-11-21T05:13:57;99552.39;;;7.45;90.56
77153;BME280;66124;51.146;17.072;2023-11-21T05:16:27;99555.60;;;7.45;90.52
77153;BME280;66124;51.146;17.072;2023-11-21T05:18:57;99554.86;;;7.44;90.51
77153;BME280;66124;51.146;17.072;2023-11-21T05:21:26;99554.23;;;7.43;90.74
77153;BME280;66124;51.146;17.072;2023-11-21T05:23:56;99554.56;;;7.43;90.64
77153;BME280;66124;51.146;17.072;2023-11-21T05:26:25;99556.38;;;7.43;90.76
77153;BME280;66124;51.146;17.072;2023-11-21T05:28:55;99559.07;;;7.42;90.91
77153;BME280;66124;51.146;17.072;2023-11-21T05:31:24;99556.41;;;7.43;90.81
77153;BME280;66124;51.146;17.072;2023-11-21T05:33:54;99553.74;;;7.43;90.90
77153;BME280;66124;51.146;17.072;2023-11-21T05:36:23;99556.98;;;7.43;90.86
77153;BME280;66124;51.146;17.072;2023-11-21T05:38:52;99558.73;;;7.44;91.11
77153;BME280;66124;51.146;17.072;2023-11-21T05:41:23;99560.04;;;7.44;90.99
77153;BME280;66124;51.146;17.072;2023-11-21T05:43:52;99566.18;;;7.46;91.09
77153;BME280;66124;51.146;17.072;2023-11-21T05:46:22;99570.08;;;7.47;91.02
77153;BME280;66124;51.146;17.072;2023-11-21T05:48:51;99569.89;;;7.46;91.08
77153;BME280;66124;51.146;17.072;2023-11-21T05:51:21;99572.30;;;7.46;91.05
77153;BME280;66124;51.146;17.072;2023-11-21T05:53:50;99574.67;;;7.45;91.06
77153;BME280;66124;51.146;17.072;2023-11-21T05:56:20;99573.51;;;7.44;91.13
77153;BME280;66124;51.146;17.072;2023-11-21T05:58:49;99573.01;;;7.46;91.38
77153;BME280;66124;51.146;17.072;2023-11-21T06:01:18;99572.90;;;7.46;91.08
77153;BME280;66124;51.146;17.072;2023-11-21T06:03:46;99576.16;;;7.46;91.13
77153;BME280;66124;51.146;17.072;2023-11-21T06:10:52;99576.39;;;7.45;91.15
77153;BME280;66124;51.146;17.072;2023-11-21T06:13:22;99575.73;;;7.42;91.01
77153;BME280;66124;51.146;17.072;2023-11-21T06:15:51;99582.57;;;7.42;91.12
77153;BME280;66124;51.146;17.072;2023-11-21T06:18:21;99583.50;;;7.41;91.06
77153;BME280;66124;51.146;17.072;2023-11-21T06:20:50;99590.75;;;7.41;91.09
77153;BME280;66124;51.146;17.072;2023-11-21T06:23:21;99595.31;;;7.39;91.24
77153;BME280;66124;51.146;17.072;2023-11-21T06:25:50;99597.06;;;7.37;91.17
77153;BME280;66124;51.146;17.072;2023-11-21T06:28:20;99599.31;;;7.38;91.19
77153;BME280;66124;51.146;17.072;2023-11-21T06:30:50;99600.70;;;7.38;91.20
77153;BME280;66124;51.146;17.072;2023-11-21T06:33:19;99602.35;;;7.38;91.27
77153;BME280;66124;51.146;17.072;2023-11-21T06:35:49;99611.86;;;7.39;91.42
77153;BME280;66124;51.146;17.072;2023-11-21T06:38:18;99615.14;;;7.40;91.39
77153;BME280;66124;51.146;17.072;2023-11-21T06:40:47;99612.67;;;7.41;91.37
77153;BME280;66124;51.146;17.072;2023-11-21T06:43:17;99618.14;;;7.43;91.33
77153;BME280;66124;51.146;17.072;2023-11-21T06:45:46;99618.04;;;7.44;91.24
77153;BME280;66124;51.146;17.072;2023-11-21T06:48:16;99627.11;;;7.45;91.32
77153;BME280;66124;51.146;17.072;2023-11-21T06:50:45;99628.77;;;7.46;91.38
77153;BME280;66124;51.146;17.072;2023-11-21T06:53:15;99636.23;;;7.46;91.38
77153;BME280;66124;51.146;17.072;2023-11-21T06:55:44;99634.31;;;7.46;91.32
77153;BME280;66124;51.146;17.072;2023-11-21T06:58:13;99638.50;;;7.48;91.35
77153;BME280;66124;51.146;17.072;2023-11-21T07:00:43;99643.15;;;7.48;91.32
77153;BME280;66124;51.146;17.072;2023-11-21T07:03:13;99640.44;;;7.48;91.22
77153;BME280;66124;51.146;17.072;2023-11-21T07:05:42;99638.34;;;7.48;91.11
77153;BME280;66124;51.146;17.072;2023-11-21T07:08:12;99637.61;;;7.48;91.21
77153;BME280;66124;51.146;17.072;2023-11-21T07:10:42;99641.77;;;7.48;91.37
77153;BME280;66124;51.146;17.072;2023-11-21T07:13:11;99645.02;;;7.49;91.18
77153;BME280;66124;51.146;17.072;2023-11-21T07:15:41;99645.90;;;7.49;91.24
77153;BME280;66124;51.146;17.072;2023-11-21T07:18:11;99645.81;;;7.48;91.17
77153;BME280;66124;51.146;17.072;2023-11-21T07:20:40;99649.66;;;7.49;91.33
77153;BME280;66124;51.146;17.072;2023-11-21T07:23:09;99649.05;;;7.50;91.25
77153;BME280;66124;51.146;17.072;2023-11-21T07:31:06;99653.29;;;7.55;91.32
77153;BME280;66124;51.146;17.072;2023-11-21T07:33:35;99656.36;;;7.54;91.25
77153;BME280;66124;51.146;17.072;2023-11-21T07:36:08;99655.31;;;7.54;91.22
77153;BME280;66124;51.146;17.072;2023-11-21T07:38:38;99656.59;;;7.55;91.26
77153;BME280;66124;51.146;17.072;2023-11-21T07:41:08;99661.53;;;7.56;91.29
77153;BME280;66124;51.146;17.072;2023-11-21T07:43:37;99659.00;;;7.57;91.36
77153;BME280;66124;51.146;17.072;2023-11-21T07:46:07;99663.32;;;7.59;91.27
77153;BME280;66124;51.146;17.072;2023-11-21T07:48:36;99663.91;;;7.60;91.25
77153;BME280;66124;51.146;17.072;2023-11-21T07:51:06;99661.02;;;7.60;91.21
77153;BME280;66124;51.146;17.072;2023-11-21T07:53:36;99663.56;;;7.61;91.25
77153;BME280;66124;51.146;17.072;2023-11-21T07:56:08;99666.77;;;7.62;91.09
77153;BME280;66124;51.146;17.072;2023-11-21T07:58:38;99664.81;;;7.64;91.21
77153;BME280;66124;51.146;17.072;2023-11-21T08:01:07;99664.10;;;7.64;91.28
77153;BME280;66124;51.146;17.072;2023-11-21T08:03:37;99666.95;;;7.65;91.24
77153;BME280;66124;51.146;17.072;2023-11-21T08:06:08;99662.88;;;7.67;91.24
77153;BME280;66124;51.146;17.072;2023-11-21T08:08:37;99667.81;;;7.68;91.20
77153;BME280;66124;51.146;17.072;2023-11-21T08:11:07;99670.60;;;7.70;91.19
77153;BME280;66124;51.146;17.072;2023-11-21T08:13:37;99680.48;;;7.72;91.23
77153;BME280;66124;51.146;17.072;2023-11-21T08:16:08;99679.95;;;7.74;91.20
77153;BME280;66124;51.146;17.072;2023-11-21T08:18:37;99680.50;;;7.75;91.21
77153;BME280;66124;51.146;17.072;2023-11-21T08:21:07;99675.40;;;7.77;91.16
77153;BME280;66124;51.146;17.072;2023-11-21T08:23:36;99684.84;;;7.79;91.21
77153;BME280;66124;51.146;17.072;2023-11-21T08:26:06;99678.83;;;7.81;91.04
77153;BME280;66124;51.146;17.072;2023-11-21T08:28:36;99682.48;;;7.82;91.18
77153;BME280;66124;51.146;17.072;2023-11-21T08:31:06;99687.62;;;7.85;91.09
77153;BME280;66124;51.146;17.072;2023-11-21T08:33:35;99689.80;;;7.87;91.22
77153;BME280;66124;51.146;17.072;2023-11-21T08:36:10;99692.55;;;7.89;91.03
77153;BME280;66124;51.146;17.072;2023-11-21T08:38:39;99692.98;;;7.92;91.07
77153;BME280;66124;51.146;17.072;2023-11-21T08:46:53;99695.16;;;7.98;90.78
77153;BME280;66124;51.146;17.072;2023-11-21T08:49:23;99699.45;;;7.96;90.70
77153;BME280;66124;51.146;17.072;2023-11-21T08:51:52;99701.88;;;7.96;90.60
77153;BME280;66124;51.146;17.072;2023-11-21T08:54:21;99701.36;;;7.96;90.52
77153;BME280;66124;51.146;17.072;2023-11-21T08:56:51;99698.67;;;7.95;90.59
77153;BME280;66124;51.146;17.072;2023-11-21T08:59:22;99694.18;;;7.95;90.57
77153;BME280;66124;51.146;17.072;2023-11-21T09:01:51;99692.91;;;7.97;90.41
77153;BME280;66124;51.146;17.072;2023-11-21T09:04:21;99692.04;;;8.00;90.58
77153;BME280;66124;51.146;17.072;2023-11-21T09:06:50;99686.94;;;8.01;90.49
77153;BME280;66124;51.146;17.072;2023-11-21T09:09:19;99689.97;;;8.08;90.54
77153;BME280;66124;51.146;17.072;2023-11-21T09:11:49;99690.44;;;8.15;90.46
77153;BME280;66124;51.146;17.072;2023-11-21T09:14:18;99689.55;;;8.22;90.60
77153;BME280;66124;51.146;17.072;2023-11-21T09:16:48;99694.64;;;8.31;90.36
77153;BME280;66124;51.146;17.072;2023-11-21T09:19:17;99697.44;;;8.40;90.47
77153;BME280;66124;51.146;17.072;2023-11-21T09:21:47;99699.23;;;8.51;90.38
77153;BME280;66124;51.146;17.072;2023-11-21T09:24:16;99696.28;;;8.59;90.32
77153;BME280;66124;51.146;17.072;2023-11-21T09:26:46;99697.98;;;8.70;90.08
77153;BME280;66124;51.146;17.072;2023-11-21T09:29:15;99703.75;;;8.79;90.02
77153;BME280;66124;51.146;17.072;2023-11-21T09:31:44;99706.09;;;8.88;89.95
77153;BME280;66124;51.146;17.072;2023-11-21T09:34:14;99708.42;;;8.94;89.34
77153;BME280;66124;51.146;17.072;2023-11-21T09:36:45;99713.63;;;8.94;89.19
77153;BME280;66124;51.146;17.072;2023-11-21T09:39:15;99715.29;;;8.92;88.93
77153;BME280;66124;51.146;17.072;2023-11-21T09:41:49;99712.88;;;8.87;88.85
77153;BME280;66124;51.146;17.072;2023-11-21T09:44:23;99714.50;;;8.83;89.04
77153;BME280;66124;51.146;17.072;2023-11-21T09:47:00;99714.00;;;8.79;88.98
77153;BME280;66124;51.146;17.072;2023-11-21T09:49:32;99716.76;;;8.80;88.89
77153;BME280;66124;51.146;17.072;2023-11-21T09:52:05;99718.20;;;8.79;88.79
77153;BME280;66124;51.146;17.072;2023-11-21T09:54:38;99718.06;;;8.78;88.72
77153;BME280;66124;51.146;17.072;2023-11-21T09:57:06;99721.09;;;8.74;88.67
77153;BME280;66124;51.146;17.072;2023-11-21T09:59:34;99721.44;;;8.73;88.82
77153;BME280;66124;51.146;17.072;2023-11-21T10:02:53;99721.23;;;8.75;88.73
77153;BME280;66124;51.146;17.072;2023-11-21T10:05:23;99721.81;;;8.74;88.73
77153;BME280;66124;51.146;17.072;2023-11-21T10:07:53;99719.06;;;8.80;88.89
77153;BME280;66124;51.146;17.072;2023-11-21T10:10:26;99725.67;;;8.86;88.73
77153;BME280;66124;51.146;17.072;2023-11-21T10:12:58;99727.36;;;8.91;88.84
77153;BME280;66124;51.146;17.072;2023-11-21T10:15:31;99728.83;;;8.92;88.60
77153;BME280;66124;51.146;17.072;2023-11-21T10:18:00;99729.85;;;8.92;88.74
77153;BME280;66124;51.146;17.072;2023-11-21T10:20:31;99731.91;;;8.92;88.61
77153;BME280;66124;51.146;17.072;2023-11-21T10:23:01;99735.38;;;8.90;88.51
77153;BME280;66124;51.146;17.072;2023-11-21T10:25:31;99738.84;;;8.84;88.29
77153;BME280;66124;51.146;17.072;2023-11-21T10:28:01;99742.82;;;8.76;88.13
77153;BME280;66124;51.146;17.072;2023-11-21T10:30:34;99742.07;;;8.66;87.94
77153;BME280;66124;51.146;17.072;2023-11-21T10:33:04;99739.87;;;8.59;87.99
77153;BME280;66124;51.146;17.072;2023-11-21T10:35:47;99745.14;;;8.53;88.03
77153;BME280;66124;51.146;17.072;2023-11-21T10:38:17;99743.89;;;8.46;87.82
77153;BME280;66124;51.146;17.072;2023-11-21T10:40:46;99746.55;;;8.41;88.11
77153;BME280;66124;51.146;17.072;2023-11-21T10:43:16;99749.27;;;8.39;88.02
77153;BME280;66124;51.146;17.072;2023-11-21T10:45:46;99750.41;;;8.37;88.02
77153;BME280;66124;51.146;17.072;2023-11-21T10:48:16;99751.63;;;8.35;87.88
77153;BME280;66124;51.146;17.072;2023-11-21T10:50:47;99752.95;;;8.34;87.98
77153;BME280;66124;51.146;17.072;2023-11-21T10:53:16;99755.36;;;8.33;87.94
77153;BME280;66124;51.146;17.072;2023-11-21T10:55:46;99755.98;;;8.29;87.97
77153;BME280;66124;51.146;17.072;2023-11-21T10:58:17;99761.55;;;8.25;87.89
77153;BME280;66124;51.146;17.072;2023-11-21T11:00:47;99764.52;;;8.20;87.90
77153;BME280;66124;51.146;17.072;2023-11-21T11:03:16;99768.70;;;8.15;87.74
77153;BME280;66124;51.146;17.072;2023-11-21T11:05:46;99771.04;;;8.08;87.48
77153;BME280;66124;51.146;17.072;2023-11-21T11:08:16;99774.36;;;8.01;87.40
77153;BME280;66124;51.146;17.072;2023-11-21T11:10:48;99777.88;;;7.98;87.40
77153;BME280;66124;51.146;17.072;2023-11-21T11:13:18;99778.25;;;7.96;87.54
77153;BME280;66124;51.146;17.072;2023-11-21T11:15:48;99776.48;;;7.94;87.42
77153;BME280;66124;51.146;17.072;2023-11-21T11:21:31;99777.02;;;7.90;87.23
77153;BME280;66124;51.146;17.072;2023-11-21T11:24:20;99782.36;;;7.80;87.31
77153;BME280;66124;51.146;17.072;2023-11-21T11:27:00;99783.67;;;7.69;86.99
77153;BME280;66124;51.146;17.072;2023-11-21T11:29:39;99788.29;;;7.63;87.01
77153;BME280;66124;51.146;17.072;2023-11-21T11:32:20;99789.45;;;7.52;86.93
77153;BME280;66124;51.146;17.072;2023-11-21T11:34:55;99793.02;;;7.42;86.75
77153;BME280;66124;51.146;17.072;2023-11-21T11:37:27;99798.30;;;7.36;86.85
77153;BME280;66124;51.146;17.072;2023-11-21T11:39:57;99797.28;;;7.25;86.63
77153;BME280;66124;51.146;17.072;2023-11-21T11:42:28;99800.13;;;7.15;86.64
77153;BME280;66124;51.146;17.072;2023-11-21T11:44:58;99801.77;;;7.03;86.46
77153;BME280;66124;51.146;17.072;2023-11-21T11:47:29;99802.73;;;6.91;86.49
77153;BME280;66124;51.146;17.072;2023-11-21T11:50:01;99809.95;;;6.83;86.34
77153;BME280;66124;51.146;17.072;2023-11-21T11:52:39;99811.63;;;6.75;86.52
77153;BME280;66124;51.146;17.072;2023-11-21T11:55:11;99810.45;;;6.68;86.43
77153;BME280;66124;51.146;17.072;2023-11-21T11:57:42;99810.71;;;6.63;86.60
77153;BME280;66124;51.146;17.072;2023-11-21T12:00:16;99815.55;;;6.57;86.31
77153;BME280;66124;51.146;17.072;2023-11-21T12:02:47;99816.35;;;6.50;86.35
77153;BME280;66124;51.146;17.072;2023-11-21T12:05:18;99824.98;;;6.46;86.37
77153;BME280;66124;51.146;17.072;2023-11-21T12:07:50;99824.45;;;6.43;86.36
77153;BME280;66124;51.146;17.072;2023-11-21T12:10:22;99830.40;;;6.39;86.27
77153;BME280;66124;51.146;17.072;2023-11-21T12:12:53;99829.13;;;6.33;86.28
77153;BME280;66124;51.146;17.072;2023-11-21T12:15:23;99829.41;;;6.27;86.11
77153;BME280;66124;51.146;17.072;2023-11-21T12:17:53;99829.80;;;6.22;86.26
77153;BME280;66124;51.146;17.072;2023-11-21T12:20:24;99828.80;;;6.18;86.12
77153;BME280;66124;51.146;17.072;2023-11-21T12:22:56;99828.99;;;6.15;86.33
77153;BME280;66124;51.146;17.072;2023-11-21T12:25:27;99832.48;;;6.11;86.20
77153;BME280;66124;51.146;17.072;2023-11-21T12:27:57;99833.29;;;6.05;86.11
77153;BME280;66124;51.146;17.072;2023-11-21T12:30:28;99840.42;;;6.01;85.99
77153;BME280;66124;51.146;17.072;2023-11-21T12:32:59;99843.11;;;5.92;86.13
77153;BME280;66124;51.146;17.072;2023-11-21T12:38:23;99850.56;;;5.82;86.04
77153;BME280;66124;51.146;17.072;2023-11-21T12:40:52;99858.92;;;5.74;85.90
77153;BME280;66124;51.146;17.072;2023-11-21T12:43:22;99858.40;;;5.65;85.67
77153;BME280;66124;51.146;17.072;2023-11-21T12:45:51;99867.98;;;5.58;85.86
77153;BME280;66124;51.146;17.072;2023-11-21T12:48:33;99875.04;;;5.49;85.83
77153;BME280;66124;51.146;17.072;2023-11-21T12:51:04;99882.40;;;5.40;85.76
77153;BME280;66124;51.146;17.072;2023-11-21T12:53:34;99880.95;;;5.32;85.80
77153;BME280;66124;51.146;17.072;2023-11-21T12:56:05;99886.89;;;5.27;85.72
77153;BME280;66124;51.146;17.072;2023-11-21T12:58:35;99886.81;;;5.21;85.64
77153;BME280;66124;51.146;17.072;2023-11-21T13:01:05;99893.70;;;5.19;85.85
77153;BME280;66124;51.146;17.072;2023-11-21T13:03:36;99899.63;;;5.17;85.73
77153;BME280;66124;51.146;17.072;2023-11-21T13:06:07;99899.65;;;5.15;85.80
77153;BME280;66124;51.146;17.072;2023-11-21T13:08:37;99900.09;;;5.12;86.01
77153;BME280;66124;51.146;17.072;2023-11-21T13:11:07;99901.23;;;5.11;85.92
77153;BME280;66124;51.146;17.072;2023-11-21T13:13:39;99908.40;;;5.09;86.21
77153;BME280;66124;51.146;17.072;2023-11-21T13:16:10;99918.54;;;5.07;86.21
77153;BME280;66124;51.146;17.072;2023-11-21T13:18:39;99919.09;;;5.03;86.02
77153;BME280;66124;51.146;17.072;2023-11-21T13:21:09;99923.00;;;4.97;86.04
77153;BME280;66124;51.146;17.072;2023-11-21T13:23:39;99930.36;;;4.91;86.07
77153;BME280;66124;51.146;17.072;2023-11-21T13:26:10;99934.56;;;4.86;85.98
77153;BME280;66124;51.146;17.072;2023-11-21T13:28:39;99939.98;;;4.82;86.06
77153;BME280;66124;51.146;17.072;2023-11-21T13:31:09;99941.07;;;4.76;86.12
77153;BME280;66124;51.146;17.072;2023-11-21T13:33:39;99942.12;;;4.73;86.07
77153;BME280;66124;51.146;17.072;2023-11-21T13:36:09;99945.98;;;4.69;86.15
77153;BME280;66124;51.146;17.072;2023-11-21T13:38:39;99949.73;;;4.65;86.05
77153;BME280;66124;51.146;17.072;2023-11-21T13:41:09;99955.10;;;4.59;85.87
77153;BME280;66124;51.146;17.072;2023-11-21T13:43:38;99961.17;;;4.56;85.98
77153;BME280;66124;51.146;17.072;2023-11-21T13:46:08;99966.27;;;4.52;85.87
77153;BME280;66124;51.146;17.072;2023-11-21T13:48:37;99967.57;;;4.48;85.93
77153;BME280;66124;51.146;17.072;2023-11-21T13:51:05;99970.81;;;4.43;85.99
77153;BME280;66124;51.146;17.072;2023-11-21T13:58:44;99982.25;;;4.33;86.22
77153;BME280;66124;51.146;17.072;2023-11-21T14:01:13;99981.48;;;4.28;86.03
77153;BME280;66124;51.146;17.072;2023-11-21T14:03:43;99989.23;;;4.27;85.88
77153;BME280;66124;51.146;17.072;2023-11-21T14:06:13;99986.63;;;4.25;86.33
77153;BME280;66124;51.146;17.072;2023-11-21T14:08:42;99995.72;;;4.23;86.18